Terminal Aerodrome Forecast
Issued by NWS

Home | Current Version | Previous Version | Text Only | Print | Product List | Glossary On
Versions: 1 2 3 4 5 6 7 8 9 10 11 12 13
000
FTUS44 KBMX 211100
TAFEET
TAF
KEET 211126Z 2112/2212 29002KT P6SM SCT250
     FM211500 28006KT P6SM SCT040
     FM220500 35006KT P6SM BKN035=

USA.gov is the U.S. government's official web portal to all federal, state and local government web resources and services.